createdAt,value
2023-05-09T00:00:32.925Z,99182.19
2023-05-09T00:02:59.643Z,99192.56
2023-05-09T00:05:26.374Z,99182.22
2023-05-09T00:07:53.095Z,99184.94
2023-05-09T00:10:19.991Z,99185.84
2023-05-09T00:12:47.330Z,99178.97
2023-05-09T00:15:14.295Z,99186.81
2023-05-09T00:17:41.468Z,99178.16
2023-05-09T00:20:09.384Z,99175.59
2023-05-09T00:22:36.030Z,99176.47
2023-05-09T00:25:02.672Z,99179.94
2023-05-09T00:27:30.761Z,99179.97
2023-05-09T00:29:57.449Z,99174.03
2023-05-09T00:32:28.695Z,99175.84
2023-05-09T00:34:55.602Z,99174.16
2023-05-09T00:37:22.327Z,99175.88
2023-05-09T00:39:48.947Z,99174.25
2023-05-09T00:42:16.446Z,99161.31
2023-05-09T00:44:43.111Z,99163.94
2023-05-09T00:47:09.882Z,99165.72
2023-05-09T00:49:36.604Z,99161.47
2023-05-09T00:52:04.969Z,99158.03
2023-05-09T00:54:31.749Z,99158.00
2023-05-09T00:56:58.357Z,99156.31
2023-05-09T00:59:25.068Z,99163.28
2023-05-09T01:01:51.672Z,99159.00
2023-05-09T01:04:18.499Z,99155.59
2023-05-09T01:07:00.126Z,99155.59
2023-05-09T01:09:55.462Z,99151.38
2023-05-09T01:12:30.852Z,99152.28
2023-05-09T01:15:26.895Z,99147.97
2023-05-09T01:18:05.774Z,99147.13
2023-05-09T01:20:40.998Z,99148.78
2023-05-09T01:23:39.840Z,99147.94
2023-05-09T01:26:47.978Z,99143.66
2023-05-09T01:29:33.314Z,99147.06
2023-05-09T01:32:03.534Z,99150.56
2023-05-09T01:34:32.674Z,99152.31
2023-05-09T01:37:02.317Z,99154.88
2023-05-09T01:39:33.044Z,99156.63
2023-05-09T01:42:03.468Z,99151.47
2023-05-09T01:44:34.749Z,99149.75
2023-05-09T01:47:03.030Z,99154.16
2023-05-09T01:49:32.682Z,99151.63
2023-05-09T01:52:04.068Z,99146.50
2023-05-09T01:54:32.322Z,99146.56
2023-05-09T01:57:02.586Z,99148.28
2023-05-09T01:59:31.928Z,99144.06
2023-05-09T02:01:58.963Z,99147.47
2023-05-09T02:04:26.619Z,99150.13
2023-05-09T02:06:54.385Z,99155.31
2023-05-09T02:09:21.822Z,99154.47
2023-05-09T02:11:48.549Z,99157.06
2023-05-09T02:14:15.264Z,99155.31
2023-05-09T02:16:43.229Z,99148.53
2023-05-09T02:19:09.866Z,99157.91
2023-05-09T02:21:39.608Z,99147.66
2023-05-09T02:24:06.544Z,99147.69
2023-05-09T02:26:34.413Z,99146.81
2023-05-09T02:29:03.323Z,99148.59
2023-05-09T02:31:31.878Z,99156.31
2023-05-09T02:33:59.431Z,99152.97
2023-05-09T02:36:26.694Z,99151.22
2023-05-09T02:38:55.522Z,99147.81
2023-05-09T02:41:22.203Z,99153.78
2023-05-09T02:43:50.926Z,99144.34
2023-05-09T02:46:17.598Z,99152.16
2023-05-09T02:48:44.221Z,99147.00
2023-05-09T02:51:10.838Z,99147.91
2023-05-09T02:53:37.436Z,99144.47
2023-05-09T02:56:04.192Z,99146.19
2023-05-09T02:58:30.883Z,99143.66
2023-05-09T03:00:59.635Z,99143.63
2023-05-09T03:03:26.342Z,99140.28
2023-05-09T03:05:52.988Z,99147.06
2023-05-09T03:08:19.571Z,99147.13
2023-05-09T03:10:46.177Z,99148.84
2023-05-09T03:13:12.771Z,99145.41
2023-05-09T03:15:39.352Z,99153.13
2023-05-09T03:18:08.338Z,99159.13
2023-05-09T03:20:35.003Z,99162.53
2023-05-09T03:23:01.665Z,99163.44
2023-05-09T03:25:28.254Z,99161.75
2023-05-09T03:27:54.883Z,99158.34
2023-05-09T03:30:21.586Z,99160.84
2023-05-09T03:32:48.195Z,99158.28
2023-05-09T03:35:15.033Z,99159.97
2023-05-09T03:37:41.935Z,99161.69
2023-05-09T03:40:09.075Z,99159.13
2023-05-09T03:42:35.660Z,99153.06
2023-05-09T03:45:02.265Z,99153.84
2023-05-09T03:47:28.903Z,99160.69
2023-05-09T03:49:55.482Z,99158.06
2023-05-09T03:52:22.023Z,99154.59
2023-05-09T03:54:48.625Z,99160.56
2023-05-09T03:57:15.308Z,99162.28
2023-05-09T03:59:41.903Z,99157.94
2023-05-09T04:02:08.581Z,99163.09
2023-05-09T04:04:35.415Z,99162.28
2023-05-09T04:07:02.012Z,99169.13
2023-05-09T04:09:28.960Z,99167.38
2023-05-09T04:11:55.681Z,99162.44
2023-05-09T04:14:22.334Z,99162.44
2023-05-09T04:16:48.928Z,99164.19
2023-05-09T04:19:15.668Z,99171.06
2023-05-09T04:21:42.249Z,99165.09
2023-05-09T04:24:08.890Z,99167.72
2023-05-09T04:26:38.530Z,99172.88
2023-05-09T04:29:05.252Z,99169.44
2023-05-09T04:31:32.025Z,99159.16
2023-05-09T04:33:58.831Z,99165.16
2023-05-09T04:36:25.429Z,99163.47
2023-05-09T04:38:51.970Z,99164.28
2023-05-09T04:41:18.550Z,99162.53
2023-05-09T04:43:45.222Z,99165.91
2023-05-09T04:46:11.890Z,99166.75
2023-05-09T04:48:38.623Z,99164.16
2023-05-09T04:51:05.298Z,99161.59
2023-05-09T04:53:32.012Z,99163.22
2023-05-09T04:55:58.645Z,99164.91
2023-05-09T04:58:26.574Z,99171.78
2023-05-09T05:00:53.201Z,99171.78
2023-05-09T05:03:19.799Z,99166.56
2023-05-09T05:05:46.510Z,99167.41
2023-05-09T05:08:13.174Z,99164.84
2023-05-09T05:10:39.861Z,99167.44
2023-05-09T05:13:06.621Z,99166.56
2023-05-09T05:15:33.245Z,99163.13
2023-05-09T05:17:59.855Z,99172.53
2023-05-09T05:20:26.438Z,99164.78
2023-05-09T05:22:54.589Z,99164.75
2023-05-09T05:25:22.281Z,99167.25
2023-05-09T05:27:48.933Z,99160.34
2023-05-09T05:30:15.789Z,99161.97
2023-05-09T05:32:43.710Z,99158.47
2023-05-09T05:35:13.837Z,99164.34
2023-05-09T05:37:41.791Z,99169.25
2023-05-09T05:40:08.961Z,99156.06
2023-05-09T05:42:38.321Z,99164.25
2023-05-09T05:45:05.380Z,99161.19
2023-05-09T05:47:41.716Z,99166.75
2023-05-09T05:50:11.926Z,99161.03
2023-05-09T05:52:39.990Z,99162.13
2023-05-09T05:55:06.828Z,99153.88
2023-05-09T05:57:35.235Z,99157.63
2023-05-09T06:00:01.918Z,99156.03
2023-05-09T06:02:28.660Z,99161.38
2023-05-09T06:04:56.161Z,99162.31
2023-05-09T06:07:22.877Z,99158.06
2023-05-09T06:09:49.528Z,99156.47
2023-05-09T06:12:17.142Z,99151.31
2023-05-09T06:14:43.916Z,99154.75
2023-05-09T06:17:10.639Z,99153.00
2023-05-09T06:19:37.775Z,99146.97
2023-05-09T06:22:04.451Z,99147.63
2023-05-09T06:24:35.722Z,99141.56
2023-05-09T06:27:03.063Z,99148.34
2023-05-09T06:29:29.616Z,99143.09
2023-05-09T06:31:56.225Z,99141.22
2023-05-09T06:34:22.806Z,99144.44
2023-05-09T06:36:49.458Z,99139.00
2023-05-09T06:39:16.506Z,99138.75
2023-05-09T06:41:43.068Z,99136.97
2023-05-09T06:44:09.660Z,99144.81
2023-05-09T06:46:36.317Z,99148.03
2023-05-09T06:49:03.010Z,99139.94
2023-05-09T06:51:29.608Z,99145.38
2023-05-09T06:53:56.198Z,99138.38
2023-05-09T06:56:23.501Z,99128.75
2023-05-09T06:58:53.397Z,99128.16
2023-05-09T07:01:20.037Z,99128.53
2023-05-09T07:03:47.637Z,99130.16
2023-05-09T07:06:14.250Z,99126.75
2023-05-09T07:08:43.694Z,99116.75
2023-05-09T07:11:10.290Z,99118.59
2023-05-09T07:13:36.919Z,99118.53
2023-05-09T07:16:04.101Z,99112.88
2023-05-09T07:18:30.828Z,99108.81
2023-05-09T07:20:57.482Z,99118.03
2023-05-09T07:23:25.359Z,99109.75
2023-05-09T07:25:57.693Z,99111.59
2023-05-09T07:28:24.585Z,99112.47
2023-05-09T07:30:51.297Z,99096.19
2023-05-09T07:33:17.940Z,99102.25
2023-05-09T07:35:47.268Z,99105.25
2023-05-09T07:38:14.784Z,99096.81
2023-05-09T07:40:44.046Z,99098.75
2023-05-09T07:43:10.717Z,99094.16
2023-05-09T07:45:37.438Z,99092.31
2023-05-09T07:48:04.378Z,99094.25
2023-05-09T07:50:33.381Z,99097.81
2023-05-09T07:53:00.220Z,99087.31
2023-05-09T07:55:26.887Z,99090.84
2023-05-09T07:57:53.471Z,99087.00
2023-05-09T08:00:23.860Z,99088.72
2023-05-09T08:02:51.711Z,99086.09
2023-05-09T08:05:19.036Z,99078.97
2023-05-09T08:07:46.329Z,99074.19
2023-05-09T08:10:13.012Z,99074.28
2023-05-09T08:12:39.872Z,99073.16
2023-05-09T08:15:07.204Z,99061.50
2023-05-09T08:17:36.439Z,99050.59
2023-05-09T08:20:05.590Z,99058.47
2023-05-09T08:22:32.240Z,99050.22
2023-05-09T08:24:58.869Z,99054.78
2023-05-09T08:27:26.266Z,99055.84
2023-05-09T08:29:52.888Z,99052.84
2023-05-09T08:32:20.163Z,99047.69
2023-05-09T08:34:48.503Z,99053.91
2023-05-09T08:37:15.618Z,99050.53
2023-05-09T08:39:43.091Z,99048.00
2023-05-09T08:42:10.388Z,99050.25
2023-05-09T08:44:37.307Z,99049.50
2023-05-09T08:47:04.867Z,99049.13
2023-05-09T08:49:35.028Z,99047.31
2023-05-09T08:52:01.844Z,99043.94
2023-05-09T08:54:28.912Z,99046.88
2023-05-09T08:56:55.854Z,99038.84
2023-05-09T08:59:27.205Z,99030.22
2023-05-09T09:01:54.019Z,99031.75
2023-05-09T09:04:20.751Z,99028.56
2023-05-09T09:06:47.644Z,99027.91
2023-05-09T09:09:20.580Z,99028.00
2023-05-09T09:11:49.667Z,99028.06
2023-05-09T09:14:22.934Z,99030.69
2023-05-09T09:16:50.923Z,99021.69
2023-05-09T09:19:18.654Z,99020.00
2023-05-09T09:21:51.190Z,99017.25
2023-05-09T09:24:23.114Z,99020.94
2023-05-09T09:26:51.367Z,99016.09
2023-05-09T09:29:19.564Z,99008.38
2023-05-09T09:31:47.602Z,99026.13
2023-05-09T09:34:20.420Z,99013.25
2023-05-09T09:36:48.483Z,99012.47
2023-05-09T09:39:15.965Z,99025.22
2023-05-09T09:41:44.632Z,99013.78
2023-05-09T09:44:12.391Z,99021.56
2023-05-09T09:46:55.868Z,99018.56
2023-05-09T09:49:24.878Z,99012.28
2023-05-09T09:52:00.499Z,99010.13
2023-05-09T09:54:29.178Z,98993.72
2023-05-09T09:56:58.808Z,98999.16
2023-05-09T09:59:26.799Z,98994.09
2023-05-09T10:02:08.475Z,98997.88
2023-05-09T10:04:39.139Z,98990.84
2023-05-09T10:07:12.799Z,98989.72
2023-05-09T10:09:41.657Z,98988.50
2023-05-09T10:12:08.968Z,98989.16
2023-05-09T10:14:36.897Z,98983.34
2023-05-09T10:17:09.619Z,98988.22
2023-05-09T10:19:38.135Z,98973.69
2023-05-09T10:22:11.078Z,98981.00
2023-05-09T10:24:51.324Z,98975.09
2023-05-09T10:27:22.803Z,98968.63
2023-05-09T10:30:04.994Z,98970.34
2023-05-09T10:32:37.746Z,98971.72
2023-05-09T10:35:17.927Z,98965.84
2023-05-09T10:37:45.766Z,98969.19
2023-05-09T10:40:15.763Z,98966.75
2023-05-09T10:42:44.021Z,98970.31
2023-05-09T10:45:12.853Z,98965.25
2023-05-09T10:47:41.632Z,98964.16
2023-05-09T10:50:09.948Z,98957.03
2023-05-09T10:53:09.060Z,98953.66
2023-05-09T10:55:56.709Z,98959.81
2023-05-09T10:58:28.816Z,98957.94
2023-05-09T11:01:04.530Z,98951.75
2023-05-09T11:04:01.355Z,98950.06
2023-05-09T11:06:54.483Z,98949.13
2023-05-09T11:09:28.167Z,98939.38
2023-05-09T11:11:58.079Z,98935.53
2023-05-09T11:14:32.397Z,98933.59
2023-05-09T11:17:03.862Z,98927.19
2023-05-09T11:19:45.604Z,98928.59
2023-05-09T11:22:18.081Z,98923.63
2023-05-09T11:24:46.941Z,98928.69
2023-05-09T11:27:28.542Z,98925.50
2023-05-09T11:29:57.665Z,98924.50
2023-05-09T11:32:31.748Z,98918.22
2023-05-09T11:35:16.255Z,98913.44
2023-05-09T11:38:06.220Z,98906.97
2023-05-09T11:40:36.814Z,98910.56
2023-05-09T11:43:03.510Z,98899.31
2023-05-09T11:45:32.351Z,98897.44
2023-05-09T11:48:00.586Z,98900.63
2023-05-09T11:50:27.362Z,98899.66
2023-05-09T11:52:54.446Z,98899.75
2023-05-09T11:55:25.640Z,98900.53
2023-05-09T11:57:54.206Z,98896.84
2023-05-09T12:00:26.044Z,98891.25
2023-05-09T12:02:53.713Z,98893.31
2023-05-09T12:05:22.891Z,98886.75
2023-05-09T12:07:49.945Z,98881.19
2023-05-09T12:10:22.934Z,98879.22
2023-05-09T12:12:51.046Z,98877.16
2023-05-09T12:15:19.577Z,98883.16
2023-05-09T12:17:48.984Z,98883.16
2023-05-09T12:20:18.006Z,98878.38
2023-05-09T12:22:44.782Z,98871.91
2023-05-09T12:25:12.182Z,98866.47
2023-05-09T12:27:41.492Z,98858.69
2023-05-09T12:30:11.025Z,98862.91
2023-05-09T12:32:40.585Z,98868.72
2023-05-09T12:35:11.400Z,98869.22
2023-05-09T12:37:40.507Z,98857.72
2023-05-09T12:40:15.554Z,98855.66
2023-05-09T12:42:46.365Z,98856.94
2023-05-09T12:45:14.128Z,98853.50
2023-05-09T12:47:45.600Z,98846.25
2023-05-09T12:50:13.450Z,98840.81
2023-05-09T12:52:58.978Z,98846.41
2023-05-09T12:55:29.204Z,98842.75
2023-05-09T12:58:01.853Z,98840.22
2023-05-09T13:00:29.275Z,98837.50
2023-05-09T13:02:58.795Z,98830.28
2023-05-09T13:05:25.504Z,98834.41
2023-05-09T13:07:58.843Z,98830.19
2023-05-09T13:10:29.105Z,98829.16
2023-05-09T13:12:55.960Z,98824.56
2023-05-09T13:15:24.239Z,98814.50
2023-05-09T13:17:54.337Z,98815.97
2023-05-09T13:20:23.519Z,98815.75
2023-05-09T13:22:50.491Z,98806.13
2023-05-09T13:25:17.178Z,98808.63
2023-05-09T13:27:49.832Z,98812.84
2023-05-09T13:30:18.337Z,98814.31
2023-05-09T13:32:45.220Z,98802.50
2023-05-09T13:35:11.909Z,98806.25
2023-05-09T13:37:38.560Z,98802.72
2023-05-09T13:40:11.103Z,98800.09
2023-05-09T13:42:40.214Z,98795.59
2023-05-09T13:45:07.548Z,98804.38
2023-05-09T13:47:35.116Z,98798.50
2023-05-09T13:50:03.863Z,98788.75
2023-05-09T13:52:30.511Z,98788.84
2023-05-09T13:54:57.216Z,98792.00
2023-05-09T13:57:23.866Z,98786.97
2023-05-09T13:59:50.589Z,98783.38
2023-05-09T14:02:17.131Z,98777.94
2023-05-09T14:04:47.731Z,98776.25
2023-05-09T14:07:16.546Z,98781.94
2023-05-09T14:09:44.094Z,98784.34
2023-05-09T14:12:10.753Z,98776.69
2023-05-09T14:14:45.460Z,98766.38
2023-05-09T14:17:13.396Z,98768.25
2023-05-09T14:19:40.073Z,98778.97
2023-05-09T14:22:06.701Z,98763.97
2023-05-09T14:24:33.379Z,98765.84
2023-05-09T14:27:03.830Z,98773.19
2023-05-09T14:29:30.528Z,98764.56
2023-05-09T14:31:57.263Z,98765.50
2023-05-09T14:34:24.033Z,98760.28
2023-05-09T14:36:50.701Z,98758.88
2023-05-09T14:39:17.382Z,98762.00
2023-05-09T14:41:44.143Z,98762.44
2023-05-09T14:44:10.769Z,98758.50
2023-05-09T14:46:38.740Z,98757.75
2023-05-09T14:49:05.516Z,98758.44
2023-05-09T14:51:36.559Z,98758.41
2023-05-09T14:54:04.609Z,98752.53
2023-05-09T14:56:31.438Z,98746.44
2023-05-09T14:58:58.414Z,98745.41
2023-05-09T15:01:25.133Z,98737.72
2023-05-09T15:03:51.824Z,98742.78
2023-05-09T15:06:18.430Z,98746.16
2023-05-09T15:08:45.035Z,98739.06
2023-05-09T15:11:11.636Z,98730.44
2023-05-09T15:13:38.408Z,98728.56
2023-05-09T15:16:07.143Z,98720.44
2023-05-09T15:18:34.475Z,98721.63
2023-05-09T15:21:01.119Z,98715.19
2023-05-09T15:23:28.120Z,98722.59
2023-05-09T15:25:54.808Z,98709.00
2023-05-09T15:28:21.456Z,98707.88
2023-05-09T15:30:48.939Z,98699.84
2023-05-09T15:33:15.763Z,98705.16
2023-05-09T15:35:44.031Z,98686.47
2023-05-09T15:38:12.260Z,98708.94
2023-05-09T15:40:44.792Z,98699.19
2023-05-09T15:43:11.410Z,98702.72
2023-05-09T15:45:38.877Z,98710.81
2023-05-09T15:48:08.538Z,98709.47
2023-05-09T15:50:35.278Z,98706.31
2023-05-09T15:53:01.834Z,98713.22
2023-05-09T15:55:28.817Z,98702.28
2023-05-09T15:57:55.420Z,98696.22
2023-05-09T16:00:25.126Z,98696.56
2023-05-09T16:02:51.778Z,98692.19
2023-05-09T16:05:18.402Z,98692.38
2023-05-09T16:07:46.634Z,98684.97
2023-05-09T16:10:14.104Z,98688.16
2023-05-09T16:12:40.849Z,98684.91
2023-05-09T16:15:08.509Z,98686.84
2023-05-09T16:17:35.104Z,98686.19
2023-05-09T16:20:02.420Z,98683.66
2023-05-09T16:22:29.131Z,98675.91
2023-05-09T16:24:58.786Z,98666.25
2023-05-09T16:27:25.430Z,98675.06
2023-05-09T16:29:52.496Z,98667.50
2023-05-09T16:32:19.067Z,98670.00
2023-05-09T16:34:45.727Z,98670.84
2023-05-09T16:37:12.520Z,98659.81
2023-05-09T16:39:39.119Z,98661.22
2023-05-09T16:42:06.040Z,98665.59
2023-05-09T16:44:32.821Z,98659.63
2023-05-09T16:47:02.306Z,98662.25
2023-05-09T16:49:28.946Z,98652.81
2023-05-09T16:51:55.552Z,98655.41
2023-05-09T16:54:23.222Z,98656.19
2023-05-09T16:56:49.851Z,98659.53
2023-05-09T16:59:17.599Z,98661.41
2023-05-09T17:01:47.039Z,98654.31
2023-05-09T17:04:18.057Z,98645.69
2023-05-09T17:06:44.681Z,98649.28
2023-05-09T17:09:11.550Z,98647.94
2023-05-09T17:11:38.170Z,98639.44
2023-05-09T17:14:04.793Z,98643.53
2023-05-09T17:16:31.401Z,98639.91
2023-05-09T17:18:58.070Z,98640.28
2023-05-09T17:21:24.681Z,98634.28
2023-05-09T17:23:53.934Z,98632.78
2023-05-09T17:26:21.475Z,98632.03
2023-05-09T17:28:48.898Z,98637.34
2023-05-09T17:31:15.796Z,98633.16
2023-05-09T17:33:43.521Z,98629.00
2023-05-09T17:36:10.089Z,98635.34
2023-05-09T17:38:36.633Z,98639.94
2023-05-09T17:41:04.186Z,98633.19
2023-05-09T17:43:31.951Z,98638.41
2023-05-09T17:45:59.130Z,98639.53
2023-05-09T17:48:26.014Z,98637.94
2023-05-09T17:50:52.821Z,98636.44
2023-05-09T17:53:19.613Z,98633.06
2023-05-09T17:55:46.285Z,98635.88
2023-05-09T17:58:14.941Z,98629.41
2023-05-09T18:00:41.709Z,98625.34
2023-05-09T18:03:08.457Z,98618.97
2023-05-09T18:05:35.185Z,98629.44
2023-05-09T18:08:03.503Z,98626.22
2023-05-09T18:10:30.167Z,98626.22
2023-05-09T18:12:57.244Z,98626.41
2023-05-09T18:15:26.475Z,98627.59
2023-05-09T18:17:54.776Z,98627.09
2023-05-09T18:20:22.005Z,98628.97
2023-05-09T18:22:48.568Z,98630.16
2023-05-09T18:25:15.479Z,98632.28
2023-05-09T18:27:42.035Z,98634.13
2023-05-09T18:30:09.284Z,98629.75
2023-05-09T18:32:35.919Z,98631.84
2023-05-09T18:35:02.535Z,98631.22
2023-05-09T18:37:29.104Z,98635.00
2023-05-09T18:39:55.769Z,98639.91
2023-05-09T18:42:22.426Z,98633.31
2023-05-09T18:44:49.330Z,98636.88
2023-05-09T18:47:16.097Z,98640.47
2023-05-09T18:49:42.772Z,98642.25
2023-05-09T18:52:10.147Z,98645.88
2023-05-09T18:54:36.932Z,98641.75
2023-05-09T18:57:03.736Z,98647.78
2023-05-09T18:59:30.470Z,98652.25
2023-05-09T19:01:57.086Z,98648.31
2023-05-09T19:04:25.286Z,98655.53
2023-05-09T19:06:51.932Z,98648.94
2023-05-09T19:09:18.976Z,98650.19
2023-05-09T19:11:45.644Z,98645.22
2023-05-09T19:14:12.277Z,98654.97
2023-05-09T19:16:38.993Z,98657.91
2023-05-09T19:19:05.642Z,98648.53
2023-05-09T19:21:34.211Z,98645.22
2023-05-09T19:24:00.815Z,98644.78
2023-05-09T19:26:27.436Z,98644.16
2023-05-09T19:28:54.236Z,98653.00
2023-05-09T19:31:21.082Z,98649.63
2023-05-09T19:33:47.964Z,98652.47
2023-05-09T19:36:14.562Z,98654.66
2023-05-09T19:38:41.225Z,98645.31
2023-05-09T19:41:07.946Z,98645.47
2023-05-09T19:43:34.592Z,98648.22
2023-05-09T19:46:01.306Z,98652.94
2023-05-09T19:48:29.599Z,98647.91
2023-05-09T19:50:58.611Z,98650.56
2023-05-09T19:53:25.472Z,98649.06
2023-05-09T19:55:55.121Z,98648.38
2023-05-09T19:58:21.807Z,98650.19
2023-05-09T20:00:48.787Z,98649.41
2023-05-09T20:03:15.669Z,98653.09
2023-05-09T20:08:26.864Z,98644.94
2023-05-09T20:10:54.174Z,98649.44
2023-05-09T20:13:20.872Z,98651.44
2023-05-09T20:15:47.948Z,98654.25
2023-05-09T20:18:16.316Z,98651.03
2023-05-09T20:20:44.470Z,98651.81
2023-05-09T20:23:11.149Z,98644.38
2023-05-09T20:25:37.770Z,98645.34
2023-05-09T20:28:04.630Z,98651.53
2023-05-09T20:30:33.899Z,98650.97
2023-05-09T20:33:01.262Z,98642.25
2023-05-09T20:35:27.992Z,98640.69
2023-05-09T20:37:54.958Z,98644.38
2023-05-09T20:40:21.650Z,98644.63
2023-05-09T20:42:48.321Z,98643.88
2023-05-09T20:45:14.899Z,98640.34
2023-05-09T20:47:41.620Z,98643.16
2023-05-09T20:50:11.266Z,98645.09
2023-05-09T20:52:37.997Z,98639.25
2023-05-09T20:55:05.407Z,98637.63
2023-05-09T20:57:32.036Z,98632.84
2023-05-09T20:59:58.648Z,98619.19
2023-05-09T21:02:25.358Z,98628.03
2023-05-09T21:04:51.949Z,98616.09
2023-05-09T21:07:19.496Z,98615.25
2023-05-09T21:09:50.784Z,98621.31
2023-05-09T21:12:17.578Z,98615.31
2023-05-09T21:14:44.879Z,98603.22
2023-05-09T21:17:11.997Z,98605.88
2023-05-09T21:19:38.663Z,98601.66
2023-05-09T21:22:05.326Z,98596.69
2023-05-09T21:24:31.926Z,98602.06
2023-05-09T21:26:58.499Z,98594.63
2023-05-09T21:29:25.141Z,98595.84
2023-05-09T21:31:51.702Z,98595.13
2023-05-09T21:34:18.793Z,98599.44
2023-05-09T21:36:45.529Z,98593.53
2023-05-09T21:39:12.160Z,98591.72
2023-05-09T21:41:39.713Z,98587.34
2023-05-09T21:44:12.063Z,98596.13
2023-05-09T21:46:38.823Z,98594.56
2023-05-09T21:49:07.679Z,98591.97
2023-05-09T21:51:35.484Z,98589.50
2023-05-09T21:54:02.208Z,98583.44
2023-05-09T21:56:28.862Z,98586.97
2023-05-09T21:58:57.684Z,98585.97
2023-05-09T22:01:24.308Z,98582.72
2023-05-09T22:03:51.555Z,98577.66
2023-05-09T22:06:18.288Z,98583.06
2023-05-09T22:08:44.958Z,98577.22
2023-05-09T22:11:13.349Z,98583.28
2023-05-09T22:13:41.345Z,98587.69
2023-05-09T22:16:08.099Z,98573.97
2023-05-09T22:18:35.065Z,98571.50
2023-05-09T22:21:01.828Z,98572.22
2023-05-09T22:23:28.413Z,98576.69
2023-05-09T22:25:54.971Z,98572.16
2023-05-09T22:28:21.595Z,98573.00
2023-05-09T22:30:48.282Z,98570.34
2023-05-09T22:33:14.882Z,98561.69
2023-05-09T22:35:41.742Z,98557.41
2023-05-09T22:38:08.392Z,98558.31
2023-05-09T22:40:35.148Z,98557.41
2023-05-09T22:43:01.719Z,98559.31
2023-05-09T22:45:30.082Z,98562.03
2023-05-09T22:47:56.819Z,98548.97
2023-05-09T22:50:23.529Z,98551.56
2023-05-09T22:52:50.174Z,98550.66
2023-05-09T22:55:16.859Z,98538.44
2023-05-09T22:57:43.520Z,98548.06
2023-05-09T23:00:10.554Z,98540.38
2023-05-09T23:02:37.631Z,98538.59
2023-05-09T23:05:04.596Z,98535.97
2023-05-09T23:07:31.171Z,98526.34
2023-05-09T23:09:57.820Z,98518.69
2023-05-09T23:12:24.408Z,98519.75
2023-05-09T23:14:50.988Z,98527.41
2023-05-09T23:17:17.800Z,98521.41
2023-05-09T23:19:44.474Z,98520.69
2023-05-09T23:22:11.527Z,98523.22
2023-05-09T23:24:38.109Z,98516.50
2023-05-09T23:27:04.736Z,98509.47
2023-05-09T23:29:31.440Z,98517.22
2023-05-09T23:31:58.094Z,98511.88
2023-05-09T23:34:25.314Z,98511.22
2023-05-09T23:36:52.146Z,98507.78
2023-05-09T23:39:18.739Z,98512.00
2023-05-09T23:41:45.468Z,98506.81
2023-05-09T23:44:12.533Z,98511.38
2023-05-09T23:46:39.146Z,98505.25
2023-05-09T23:49:08.973Z,98506.16
2023-05-09T23:51:35.692Z,98496.75
2023-05-09T23:54:02.318Z,98494.22
2023-05-09T23:56:28.979Z,98494.34
2023-05-09T23:58:55.675Z,98484.91
